sensor_id;sensor_type;location;lat;lon;timestamp;P1;durP1;ratioP1;P2;durP2;ratioP2
13439;SDS011;6792;57.698;11.946;2022-12-11T00:01:35;5.10;;;2.53;;
13439;SDS011;6792;57.698;11.946;2022-12-11T00:04:05;4.60;;;2.70;;
13439;SDS011;6792;57.698;11.946;2022-12-11T00:06:34;2.93;;;2.23;;
13439;SDS011;6792;57.698;11.946;2022-12-11T00:09:04;6.87;;;2.67;;
13439;SDS011;6792;57.698;11.946;2022-12-11T00:11:33;4.87;;;2.20;;
13439;SDS011;6792;57.698;11.946;2022-12-11T00:14:02;5.77;;;2.00;;
13439;SDS011;6792;57.698;11.946;2022-12-11T00:16:35;3.90;;;1.97;;
13439;SDS011;6792;57.698;11.946;2022-12-11T00:19:04;3.50;;;2.37;;
13439;SDS011;6792;57.698;11.946;2022-12-11T00:21:34;3.57;;;2.30;;
13439;SDS011;6792;57.698;11.946;2022-12-11T00:24:04;4.63;;;2.37;;
13439;SDS011;6792;57.698;11.946;2022-12-11T00:26:34;4.70;;;2.73;;
13439;SDS011;6792;57.698;11.946;2022-12-11T00:29:04;5.83;;;2.80;;
13439;SDS011;6792;57.698;11.946;2022-12-11T00:31:36;6.30;;;2.37;;
13439;SDS011;6792;57.698;11.946;2022-12-11T00:34:05;3.17;;;2.27;;
13439;SDS011;6792;57.698;11.946;2022-12-11T00:36:34;4.50;;;2.60;;
13439;SDS011;6792;57.698;11.946;2022-12-11T00:39:04;4.67;;;2.03;;
13439;SDS011;6792;57.698;11.946;2022-12-11T00:41:33;4.77;;;2.60;;
13439;SDS011;6792;57.698;11.946;2022-12-11T00:44:02;4.90;;;2.83;;
13439;SDS011;6792;57.698;11.946;2022-12-11T00:46:32;4.07;;;2.63;;
13439;SDS011;6792;57.698;11.946;2022-12-11T00:49:01;5.43;;;3.23;;
13439;SDS011;6792;57.698;11.946;2022-12-11T00:51:31;4.43;;;2.50;;
13439;SDS011;6792;57.698;11.946;2022-12-11T00:54:01;4.40;;;2.53;;
13439;SDS011;6792;57.698;11.946;2022-12-11T00:56:32;3.03;;;2.73;;
13439;SDS011;6792;57.698;11.946;2022-12-11T00:59:01;4.23;;;2.70;;
13439;SDS011;6792;57.698;11.946;2022-12-11T01:01:31;5.07;;;3.17;;
13439;SDS011;6792;57.698;11.946;2022-12-11T01:04:05;4.13;;;2.80;;
13439;SDS011;6792;57.698;11.946;2022-12-11T01:06:34;5.53;;;2.67;;
13439;SDS011;6792;57.698;11.946;2022-12-11T01:09:03;5.33;;;3.20;;
13439;SDS011;6792;57.698;11.946;2022-12-11T01:11:50;6.07;;;3.23;;
13439;SDS011;6792;57.698;11.946;2022-12-11T01:14:20;5.00;;;2.70;;
13439;SDS011;6792;57.698;11.946;2022-12-11T01:16:49;5.17;;;2.87;;
13439;SDS011;6792;57.698;11.946;2022-12-11T01:19:18;3.53;;;2.43;;
13439;SDS011;6792;57.698;11.946;2022-12-11T01:21:47;4.07;;;2.33;;
13439;SDS011;6792;57.698;11.946;2022-12-11T01:24:16;4.37;;;2.53;;
13439;SDS011;6792;57.698;11.946;2022-12-11T01:26:45;6.97;;;2.77;;
13439;SDS011;6792;57.698;11.946;2022-12-11T01:29:15;8.07;;;3.17;;
13439;SDS011;6792;57.698;11.946;2022-12-11T01:31:44;3.83;;;2.27;;
13439;SDS011;6792;57.698;11.946;2022-12-11T01:34:13;4.83;;;2.77;;
13439;SDS011;6792;57.698;11.946;2022-12-11T01:36:42;7.73;;;3.27;;
13439;SDS011;6792;57.698;11.946;2022-12-11T01:39:11;5.97;;;3.43;;
13439;SDS011;6792;57.698;11.946;2022-12-11T01:41:40;5.77;;;3.33;;
13439;SDS011;6792;57.698;11.946;2022-12-11T01:47:15;5.63;;;2.73;;
13439;SDS011;6792;57.698;11.946;2022-12-11T01:49:44;5.03;;;2.90;;
13439;SDS011;6792;57.698;11.946;2022-12-11T01:52:15;4.23;;;2.50;;
13439;SDS011;6792;57.698;11.946;2022-12-11T01:54:46;7.07;;;2.90;;
13439;SDS011;6792;57.698;11.946;2022-12-11T01:57:16;4.50;;;2.97;;
13439;SDS011;6792;57.698;11.946;2022-12-11T01:59:49;5.50;;;3.03;;
13439;SDS011;6792;57.698;11.946;2022-12-11T02:02:19;5.27;;;3.13;;
13439;SDS011;6792;57.698;11.946;2022-12-11T02:04:50;5.67;;;3.20;;
13439;SDS011;6792;57.698;11.946;2022-12-11T02:07:20;4.50;;;3.00;;
13439;SDS011;6792;57.698;11.946;2022-12-11T02:09:50;4.33;;;2.73;;
13439;SDS011;6792;57.698;11.946;2022-12-11T02:12:21;4.03;;;2.53;;
13439;SDS011;6792;57.698;11.946;2022-12-11T02:14:52;4.80;;;2.90;;
13439;SDS011;6792;57.698;11.946;2022-12-11T02:17:26;6.93;;;3.10;;
13439;SDS011;6792;57.698;11.946;2022-12-11T02:19:59;3.63;;;2.50;;
13439;SDS011;6792;57.698;11.946;2022-12-11T02:22:36;4.60;;;2.57;;
13439;SDS011;6792;57.698;11.946;2022-12-11T02:25:12;4.77;;;2.67;;
13439;SDS011;6792;57.698;11.946;2022-12-11T02:27:43;6.10;;;2.87;;
13439;SDS011;6792;57.698;11.946;2022-12-11T02:30:15;4.93;;;2.70;;
13439;SDS011;6792;57.698;11.946;2022-12-11T02:32:46;5.10;;;2.73;;
13439;SDS011;6792;57.698;11.946;2022-12-11T02:35:17;3.83;;;2.60;;
13439;SDS011;6792;57.698;11.946;2022-12-11T02:37:50;3.57;;;2.63;;
13439;SDS011;6792;57.698;11.946;2022-12-11T02:40:31;5.00;;;3.00;;
13439;SDS011;6792;57.698;11.946;2022-12-11T02:43:05;4.70;;;2.60;;
13439;SDS011;6792;57.698;11.946;2022-12-11T02:45:36;3.13;;;2.00;;
13439;SDS011;6792;57.698;11.946;2022-12-11T02:48:08;5.40;;;2.73;;
13439;SDS011;6792;57.698;11.946;2022-12-11T02:50:41;4.33;;;2.50;;
13439;SDS011;6792;57.698;11.946;2022-12-11T02:53:12;6.03;;;3.33;;
13439;SDS011;6792;57.698;11.946;2022-12-11T02:55:44;2.83;;;2.53;;
13439;SDS011;6792;57.698;11.946;2022-12-11T02:58:17;5.80;;;3.10;;
13439;SDS011;6792;57.698;11.946;2022-12-11T03:00:49;6.47;;;3.40;;
13439;SDS011;6792;57.698;11.946;2022-12-11T03:03:18;5.30;;;3.37;;
13439;SDS011;6792;57.698;11.946;2022-12-11T03:05:48;6.00;;;2.87;;
13439;SDS011;6792;57.698;11.946;2022-12-11T03:08:17;4.67;;;2.47;;
13439;SDS011;6792;57.698;11.946;2022-12-11T03:10:46;7.67;;;3.53;;
13439;SDS011;6792;57.698;11.946;2022-12-11T03:13:16;5.13;;;2.83;;
13439;SDS011;6792;57.698;11.946;2022-12-11T03:15:48;5.50;;;3.53;;
13439;SDS011;6792;57.698;11.946;2022-12-11T03:18:23;7.83;;;3.57;;
13439;SDS011;6792;57.698;11.946;2022-12-11T03:20:56;5.83;;;2.53;;
13439;SDS011;6792;57.698;11.946;2022-12-11T03:23:27;4.87;;;3.07;;
13439;SDS011;6792;57.698;11.946;2022-12-11T03:26:00;4.93;;;3.07;;
13439;SDS011;6792;57.698;11.946;2022-12-11T03:28:36;6.43;;;3.83;;
13439;SDS011;6792;57.698;11.946;2022-12-11T03:31:08;5.17;;;2.87;;
13439;SDS011;6792;57.698;11.946;2022-12-11T03:33:40;4.63;;;2.90;;
13439;SDS011;6792;57.698;11.946;2022-12-11T03:36:12;4.47;;;2.73;;
13439;SDS011;6792;57.698;11.946;2022-12-11T03:38:45;4.07;;;2.63;;
13439;SDS011;6792;57.698;11.946;2022-12-11T03:41:16;4.10;;;2.83;;
13439;SDS011;6792;57.698;11.946;2022-12-11T03:43:47;4.27;;;3.17;;
13439;SDS011;6792;57.698;11.946;2022-12-11T03:46:20;4.33;;;2.77;;
13439;SDS011;6792;57.698;11.946;2022-12-11T03:48:52;4.50;;;2.77;;
13439;SDS011;6792;57.698;11.946;2022-12-11T03:51:24;4.20;;;2.60;;
13439;SDS011;6792;57.698;11.946;2022-12-11T03:53:55;3.03;;;2.63;;
13439;SDS011;6792;57.698;11.946;2022-12-11T03:56:26;2.43;;;2.07;;
13439;SDS011;6792;57.698;11.946;2022-12-11T03:58:58;3.43;;;2.60;;
13439;SDS011;6792;57.698;11.946;2022-12-11T04:01:27;3.57;;;2.60;;
13439;SDS011;6792;57.698;11.946;2022-12-11T04:03:56;5.20;;;3.00;;
13439;SDS011;6792;57.698;11.946;2022-12-11T04:06:25;3.87;;;2.93;;
13439;SDS011;6792;57.698;11.946;2022-12-11T04:08:55;4.83;;;2.80;;
13439;SDS011;6792;57.698;11.946;2022-12-11T04:11:24;5.93;;;2.90;;
13439;SDS011;6792;57.698;11.946;2022-12-11T04:14:02;4.20;;;2.60;;
13439;SDS011;6792;57.698;11.946;2022-12-11T04:16:51;5.00;;;2.67;;
13439;SDS011;6792;57.698;11.946;2022-12-11T04:19:20;3.83;;;2.80;;
13439;SDS011;6792;57.698;11.946;2022-12-11T04:22:08;5.27;;;2.87;;
13439;SDS011;6792;57.698;11.946;2022-12-11T04:24:56;6.10;;;2.73;;
13439;SDS011;6792;57.698;11.946;2022-12-11T04:27:26;3.77;;;2.70;;
13439;SDS011;6792;57.698;11.946;2022-12-11T04:30:14;3.73;;;2.60;;
13439;SDS011;6792;57.698;11.946;2022-12-11T04:32:45;3.20;;;2.27;;
13439;SDS011;6792;57.698;11.946;2022-12-11T04:35:15;3.83;;;2.80;;
13439;SDS011;6792;57.698;11.946;2022-12-11T04:37:44;3.63;;;2.73;;
13439;SDS011;6792;57.698;11.946;2022-12-11T04:40:15;3.67;;;2.97;;
13439;SDS011;6792;57.698;11.946;2022-12-11T04:42:45;5.10;;;2.20;;
13439;SDS011;6792;57.698;11.946;2022-12-11T04:45:15;3.33;;;2.27;;
13439;SDS011;6792;57.698;11.946;2022-12-11T04:47:44;3.73;;;2.83;;
13439;SDS011;6792;57.698;11.946;2022-12-11T04:50:14;3.30;;;2.87;;
13439;SDS011;6792;57.698;11.946;2022-12-11T04:52:43;3.57;;;2.97;;
13439;SDS011;6792;57.698;11.946;2022-12-11T04:55:12;2.80;;;2.50;;
13439;SDS011;6792;57.698;11.946;2022-12-11T04:57:41;3.53;;;2.40;;
13439;SDS011;6792;57.698;11.946;2022-12-11T05:00:11;2.80;;;2.10;;
13439;SDS011;6792;57.698;11.946;2022-12-11T05:02:42;3.03;;;2.30;;
13439;SDS011;6792;57.698;11.946;2022-12-11T05:05:11;4.83;;;2.63;;
13439;SDS011;6792;57.698;11.946;2022-12-11T05:07:41;3.60;;;2.47;;
13439;SDS011;6792;57.698;11.946;2022-12-11T05:10:10;5.47;;;2.97;;
13439;SDS011;6792;57.698;11.946;2022-12-11T05:12:39;4.50;;;2.70;;
13439;SDS011;6792;57.698;11.946;2022-12-11T05:15:09;3.60;;;2.63;;
13439;SDS011;6792;57.698;11.946;2022-12-11T05:17:38;4.03;;;2.27;;
13439;SDS011;6792;57.698;11.946;2022-12-11T05:20:08;3.83;;;2.53;;
13439;SDS011;6792;57.698;11.946;2022-12-11T05:22:38;2.97;;;2.40;;
13439;SDS011;6792;57.698;11.946;2022-12-11T05:25:07;3.93;;;2.77;;
13439;SDS011;6792;57.698;11.946;2022-12-11T05:27:37;5.53;;;3.10;;
13439;SDS011;6792;57.698;11.946;2022-12-11T05:30:07;4.70;;;3.00;;
13439;SDS011;6792;57.698;11.946;2022-12-11T05:32:37;3.87;;;2.50;;
13439;SDS011;6792;57.698;11.946;2022-12-11T05:35:07;3.77;;;2.83;;
13439;SDS011;6792;57.698;11.946;2022-12-11T05:37:36;4.37;;;3.10;;
13439;SDS011;6792;57.698;11.946;2022-12-11T05:40:07;5.20;;;3.17;;
13439;SDS011;6792;57.698;11.946;2022-12-11T05:42:38;4.30;;;3.00;;
13439;SDS011;6792;57.698;11.946;2022-12-11T05:45:09;4.67;;;3.13;;
13439;SDS011;6792;57.698;11.946;2022-12-11T05:47:38;4.67;;;2.83;;
13439;SDS011;6792;57.698;11.946;2022-12-11T05:50:08;4.97;;;3.07;;
13439;SDS011;6792;57.698;11.946;2022-12-11T05:52:38;4.63;;;2.73;;
13439;SDS011;6792;57.698;11.946;2022-12-11T05:55:07;3.83;;;2.53;;
13439;SDS011;6792;57.698;11.946;2022-12-11T05:57:37;5.63;;;3.13;;
13439;SDS011;6792;57.698;11.946;2022-12-11T06:00:08;4.87;;;3.13;;
13439;SDS011;6792;57.698;11.946;2022-12-11T06:02:38;4.90;;;2.47;;
13439;SDS011;6792;57.698;11.946;2022-12-11T06:05:08;4.90;;;3.20;;
13439;SDS011;6792;57.698;11.946;2022-12-11T06:07:37;6.27;;;3.27;;
13439;SDS011;6792;57.698;11.946;2022-12-11T06:10:08;4.63;;;2.53;;
13439;SDS011;6792;57.698;11.946;2022-12-11T06:12:41;3.23;;;2.40;;
13439;SDS011;6792;57.698;11.946;2022-12-11T06:15:10;4.27;;;2.77;;
13439;SDS011;6792;57.698;11.946;2022-12-11T06:17:40;4.60;;;2.53;;
13439;SDS011;6792;57.698;11.946;2022-12-11T06:20:10;4.47;;;2.40;;
13439;SDS011;6792;57.698;11.946;2022-12-11T06:22:39;3.87;;;2.73;;
13439;SDS011;6792;57.698;11.946;2022-12-11T06:25:08;4.17;;;2.30;;
13439;SDS011;6792;57.698;11.946;2022-12-11T06:27:38;3.57;;;2.40;;
13439;SDS011;6792;57.698;11.946;2022-12-11T06:30:24;4.73;;;2.30;;
13439;SDS011;6792;57.698;11.946;2022-12-11T06:32:53;4.87;;;2.70;;
13439;SDS011;6792;57.698;11.946;2022-12-11T06:35:24;4.40;;;2.57;;
13439;SDS011;6792;57.698;11.946;2022-12-11T06:37:53;5.47;;;3.00;;
13439;SDS011;6792;57.698;11.946;2022-12-11T06:40:22;5.40;;;2.80;;
13439;SDS011;6792;57.698;11.946;2022-12-11T06:42:52;4.67;;;2.80;;
13439;SDS011;6792;57.698;11.946;2022-12-11T06:45:22;4.93;;;3.03;;
13439;SDS011;6792;57.698;11.946;2022-12-11T06:47:51;4.87;;;2.73;;
13439;SDS011;6792;57.698;11.946;2022-12-11T06:50:21;4.60;;;2.90;;
13439;SDS011;6792;57.698;11.946;2022-12-11T06:52:50;4.33;;;2.77;;
13439;SDS011;6792;57.698;11.946;2022-12-11T06:55:20;3.60;;;2.70;;
13439;SDS011;6792;57.698;11.946;2022-12-11T06:57:49;3.47;;;2.23;;
13439;SDS011;6792;57.698;11.946;2022-12-11T07:00:19;4.07;;;2.67;;
13439;SDS011;6792;57.698;11.946;2022-12-11T07:02:50;4.93;;;2.77;;
13439;SDS011;6792;57.698;11.946;2022-12-11T07:05:19;6.70;;;3.10;;
13439;SDS011;6792;57.698;11.946;2022-12-11T07:07:49;5.63;;;3.03;;
13439;SDS011;6792;57.698;11.946;2022-12-11T07:10:20;5.13;;;3.00;;
13439;SDS011;6792;57.698;11.946;2022-12-11T07:12:51;3.53;;;2.40;;
13439;SDS011;6792;57.698;11.946;2022-12-11T07:15:21;4.57;;;3.20;;
13439;SDS011;6792;57.698;11.946;2022-12-11T07:17:50;5.07;;;3.60;;
13439;SDS011;6792;57.698;11.946;2022-12-11T07:20:19;4.97;;;3.30;;
13439;SDS011;6792;57.698;11.946;2022-12-11T07:22:49;5.60;;;3.93;;
13439;SDS011;6792;57.698;11.946;2022-12-11T07:25:18;3.97;;;2.80;;
13439;SDS011;6792;57.698;11.946;2022-12-11T07:27:47;6.33;;;3.67;;
13439;SDS011;6792;57.698;11.946;2022-12-11T07:30:17;7.80;;;3.17;;
13439;SDS011;6792;57.698;11.946;2022-12-11T07:32:46;7.93;;;4.03;;
13439;SDS011;6792;57.698;11.946;2022-12-11T07:35:15;8.33;;;4.27;;
13439;SDS011;6792;57.698;11.946;2022-12-11T07:37:45;7.43;;;3.47;;
13439;SDS011;6792;57.698;11.946;2022-12-11T07:40:14;4.77;;;2.70;;
13439;SDS011;6792;57.698;11.946;2022-12-11T07:42:43;6.93;;;3.60;;
13439;SDS011;6792;57.698;11.946;2022-12-11T07:45:13;4.10;;;2.80;;
13439;SDS011;6792;57.698;11.946;2022-12-11T07:47:43;4.50;;;3.00;;
13439;SDS011;6792;57.698;11.946;2022-12-11T07:50:13;5.57;;;2.90;;
13439;SDS011;6792;57.698;11.946;2022-12-11T07:52:42;6.33;;;3.13;;
13439;SDS011;6792;57.698;11.946;2022-12-11T07:55:13;4.85;;;3.85;;
13439;SDS011;6792;57.698;11.946;2022-12-11T07:57:42;3.50;;;3.00;;
13439;SDS011;6792;57.698;11.946;2022-12-11T08:00:12;4.97;;;3.07;;
13439;SDS011;6792;57.698;11.946;2022-12-11T08:02:45;3.97;;;3.03;;
13439;SDS011;6792;57.698;11.946;2022-12-11T08:05:14;5.10;;;2.97;;
13439;SDS011;6792;57.698;11.946;2022-12-11T08:07:43;3.33;;;2.30;;
13439;SDS011;6792;57.698;11.946;2022-12-11T08:10:12;3.50;;;2.07;;
13439;SDS011;6792;57.698;11.946;2022-12-11T08:12:42;4.87;;;3.00;;
13439;SDS011;6792;57.698;11.946;2022-12-11T08:15:11;7.47;;;3.70;;
13439;SDS011;6792;57.698;11.946;2022-12-11T08:17:40;4.97;;;3.03;;
13439;SDS011;6792;57.698;11.946;2022-12-11T08:20:10;7.60;;;3.23;;
13439;SDS011;6792;57.698;11.946;2022-12-11T08:22:39;6.20;;;2.73;;
13439;SDS011;6792;57.698;11.946;2022-12-11T08:25:08;3.57;;;2.87;;
13439;SDS011;6792;57.698;11.946;2022-12-11T08:27:37;6.07;;;2.97;;
13439;SDS011;6792;57.698;11.946;2022-12-11T08:30:07;5.40;;;2.77;;
13439;SDS011;6792;57.698;11.946;2022-12-11T08:32:38;4.83;;;2.83;;
13439;SDS011;6792;57.698;11.946;2022-12-11T08:35:07;4.47;;;2.97;;
13439;SDS011;6792;57.698;11.946;2022-12-11T08:37:37;3.30;;;2.63;;
13439;SDS011;6792;57.698;11.946;2022-12-11T08:40:08;5.20;;;2.80;;
13439;SDS011;6792;57.698;11.946;2022-12-11T08:42:38;5.17;;;2.90;;
13439;SDS011;6792;57.698;11.946;2022-12-11T08:45:08;3.93;;;2.57;;
13439;SDS011;6792;57.698;11.946;2022-12-11T08:47:38;5.10;;;3.70;;
13439;SDS011;6792;57.698;11.946;2022-12-11T08:50:07;4.53;;;3.00;;
13439;SDS011;6792;57.698;11.946;2022-12-11T08:52:37;5.77;;;3.10;;
13439;SDS011;6792;57.698;11.946;2022-12-11T08:55:07;4.67;;;2.83;;
13439;SDS011;6792;57.698;11.946;2022-12-11T08:57:36;4.37;;;3.07;;
13439;SDS011;6792;57.698;11.946;2022-12-11T09:00:07;5.80;;;3.10;;
13439;SDS011;6792;57.698;11.946;2022-12-11T09:02:41;5.17;;;2.90;;
13439;SDS011;6792;57.698;11.946;2022-12-11T09:05:10;7.27;;;3.93;;
13439;SDS011;6792;57.698;11.946;2022-12-11T09:07:41;6.23;;;3.30;;
13439;SDS011;6792;57.698;11.946;2022-12-11T09:10:10;6.33;;;3.67;;
13439;SDS011;6792;57.698;11.946;2022-12-11T09:12:40;4.50;;;2.80;;
13439;SDS011;6792;57.698;11.946;2022-12-11T09:15:10;4.67;;;3.13;;
13439;SDS011;6792;57.698;11.946;2022-12-11T09:17:39;3.67;;;2.50;;
13439;SDS011;6792;57.698;11.946;2022-12-11T09:20:09;4.70;;;3.10;;
13439;SDS011;6792;57.698;11.946;2022-12-11T09:22:39;3.43;;;2.67;;
13439;SDS011;6792;57.698;11.946;2022-12-11T09:25:09;4.63;;;3.00;;
13439;SDS011;6792;57.698;11.946;2022-12-11T09:27:38;5.03;;;2.90;;
13439;SDS011;6792;57.698;11.946;2022-12-11T09:30:09;4.03;;;3.03;;
13439;SDS011;6792;57.698;11.946;2022-12-11T09:32:42;5.37;;;3.40;;
13439;SDS011;6792;57.698;11.946;2022-12-11T09:35:11;4.87;;;3.30;;
13439;SDS011;6792;57.698;11.946;2022-12-11T09:37:43;3.93;;;2.90;;
13439;SDS011;6792;57.698;11.946;2022-12-11T09:40:12;4.63;;;3.40;;
13439;SDS011;6792;57.698;11.946;2022-12-11T09:42:46;5.43;;;3.53;;
13439;SDS011;6792;57.698;11.946;2022-12-11T09:45:19;5.73;;;3.37;;
13439;SDS011;6792;57.698;11.946;2022-12-11T09:47:49;4.73;;;3.67;;
13439;SDS011;6792;57.698;11.946;2022-12-11T09:50:25;5.27;;;3.70;;
13439;SDS011;6792;57.698;11.946;2022-12-11T09:52:58;4.63;;;3.43;;
13439;SDS011;6792;57.698;11.946;2022-12-11T09:55:34;5.57;;;3.30;;
13439;SDS011;6792;57.698;11.946;2022-12-11T09:58:09;3.87;;;3.03;;
13439;SDS011;6792;57.698;11.946;2022-12-11T10:00:44;5.93;;;3.50;;
13439;SDS011;6792;57.698;11.946;2022-12-11T10:03:21;5.37;;;3.37;;
13439;SDS011;6792;57.698;11.946;2022-12-11T10:06:05;7.60;;;3.77;;
13439;SDS011;6792;57.698;11.946;2022-12-11T10:08:38;3.63;;;2.90;;
13439;SDS011;6792;57.698;11.946;2022-12-11T10:11:21;5.27;;;3.20;;
13439;SDS011;6792;57.698;11.946;2022-12-11T10:14:08;4.23;;;3.00;;
13439;SDS011;6792;57.698;11.946;2022-12-11T10:16:39;6.37;;;3.90;;
13439;SDS011;6792;57.698;11.946;2022-12-11T10:19:13;5.43;;;3.37;;
13439;SDS011;6792;57.698;11.946;2022-12-11T10:21:44;4.70;;;3.17;;
13439;SDS011;6792;57.698;11.946;2022-12-11T10:24:17;6.17;;;2.83;;
13439;SDS011;6792;57.698;11.946;2022-12-11T10:26:51;5.03;;;2.80;;
13439;SDS011;6792;57.698;11.946;2022-12-11T10:29:26;3.33;;;2.80;;
13439;SDS011;6792;57.698;11.946;2022-12-11T10:31:56;5.20;;;3.13;;
13439;SDS011;6792;57.698;11.946;2022-12-11T10:34:28;3.60;;;2.70;;
13439;SDS011;6792;57.698;11.946;2022-12-11T10:37:06;3.13;;;2.70;;
13439;SDS011;6792;57.698;11.946;2022-12-11T10:39:35;4.63;;;2.80;;
13439;SDS011;6792;57.698;11.946;2022-12-11T10:42:09;4.73;;;2.97;;
13439;SDS011;6792;57.698;11.946;2022-12-11T10:44:41;5.17;;;2.97;;
13439;SDS011;6792;57.698;11.946;2022-12-11T10:47:22;5.33;;;3.17;;
13439;SDS011;6792;57.698;11.946;2022-12-11T10:49:53;3.70;;;2.43;;
13439;SDS011;6792;57.698;11.946;2022-12-11T10:52:25;3.73;;;2.90;;
13439;SDS011;6792;57.698;11.946;2022-12-11T10:54:58;3.43;;;2.80;;
13439;SDS011;6792;57.698;11.946;2022-12-11T10:57:35;4.00;;;3.23;;
13439;SDS011;6792;57.698;11.946;2022-12-11T11:00:06;3.90;;;2.73;;
13439;SDS011;6792;57.698;11.946;2022-12-11T11:02:55;6.77;;;3.20;;
13439;SDS011;6792;57.698;11.946;2022-12-11T11:05:28;4.07;;;2.90;;
13439;SDS011;6792;57.698;11.946;2022-12-11T11:08:11;5.07;;;2.70;;
13439;SDS011;6792;57.698;11.946;2022-12-11T11:10:52;5.87;;;3.10;;
13439;SDS011;6792;57.698;11.946;2022-12-11T11:13:26;5.40;;;3.27;;
13439;SDS011;6792;57.698;11.946;2022-12-11T11:16:00;4.63;;;2.70;;
13439;SDS011;6792;57.698;11.946;2022-12-11T11:18:31;4.90;;;2.97;;
13439;SDS011;6792;57.698;11.946;2022-12-11T11:21:03;3.97;;;3.17;;
13439;SDS011;6792;57.698;11.946;2022-12-11T11:23:33;4.03;;;3.03;;
13439;SDS011;6792;57.698;11.946;2022-12-11T11:26:06;5.57;;;3.47;;
13439;SDS011;6792;57.698;11.946;2022-12-11T11:28:39;5.03;;;3.20;;
13439;SDS011;6792;57.698;11.946;2022-12-11T11:31:13;7.53;;;3.60;;
13439;SDS011;6792;57.698;11.946;2022-12-11T11:33:53;5.80;;;3.50;;
13439;SDS011;6792;57.698;11.946;2022-12-11T11:36:19;5.23;;;3.73;;
13439;SDS011;6792;57.698;11.946;2022-12-11T11:38:53;7.53;;;4.00;;
13439;SDS011;6792;57.698;11.946;2022-12-11T11:41:30;6.53;;;3.90;;
13439;SDS011;6792;57.698;11.946;2022-12-11T11:44:04;5.53;;;3.67;;
13439;SDS011;6792;57.698;11.946;2022-12-11T11:46:42;6.20;;;3.80;;
13439;SDS011;6792;57.698;11.946;2022-12-11T11:49:16;5.53;;;3.60;;
13439;SDS011;6792;57.698;11.946;2022-12-11T11:51:49;7.17;;;4.23;;
13439;SDS011;6792;57.698;11.946;2022-12-11T11:54:24;5.73;;;3.37;;
13439;SDS011;6792;57.698;11.946;2022-12-11T11:56:57;7.57;;;3.80;;
13439;SDS011;6792;57.698;11.946;2022-12-11T11:59:31;6.10;;;3.73;;
13439;SDS011;6792;57.698;11.946;2022-12-11T12:02:08;6.67;;;3.80;;
13439;SDS011;6792;57.698;11.946;2022-12-11T12:04:47;7.63;;;3.60;;
13439;SDS011;6792;57.698;11.946;2022-12-11T12:07:23;7.60;;;3.57;;
13439;SDS011;6792;57.698;11.946;2022-12-11T12:09:57;5.90;;;3.63;;
13439;SDS011;6792;57.698;11.946;2022-12-11T12:12:32;7.83;;;4.00;;
13439;SDS011;6792;57.698;11.946;2022-12-11T12:15:14;9.70;;;4.40;;
13439;SDS011;6792;57.698;11.946;2022-12-11T12:17:52;8.67;;;3.97;;
13439;SDS011;6792;57.698;11.946;2022-12-11T12:20:26;8.77;;;4.73;;
13439;SDS011;6792;57.698;11.946;2022-12-11T12:23:02;5.73;;;3.90;;
13439;SDS011;6792;57.698;11.946;2022-12-11T12:25:41;7.27;;;4.43;;
13439;SDS011;6792;57.698;11.946;2022-12-11T12:28:17;7.53;;;4.00;;
13439;SDS011;6792;57.698;11.946;2022-12-11T12:30:50;6.97;;;3.90;;
13439;SDS011;6792;57.698;11.946;2022-12-11T12:33:27;7.43;;;4.07;;
13439;SDS011;6792;57.698;11.946;2022-12-11T12:36:08;8.77;;;4.83;;
13439;SDS011;6792;57.698;11.946;2022-12-11T12:38:41;8.10;;;4.07;;
13439;SDS011;6792;57.698;11.946;2022-12-11T12:41:14;8.17;;;4.00;;
13439;SDS011;6792;57.698;11.946;2022-12-11T12:43:49;6.70;;;4.00;;
13439;SDS011;6792;57.698;11.946;2022-12-11T12:46:25;8.50;;;4.13;;
13439;SDS011;6792;57.698;11.946;2022-12-11T12:49:00;6.70;;;4.00;;
13439;SDS011;6792;57.698;11.946;2022-12-11T12:51:30;8.47;;;4.20;;
13439;SDS011;6792;57.698;11.946;2022-12-11T12:54:03;7.97;;;4.27;;
13439;SDS011;6792;57.698;11.946;2022-12-11T12:56:34;7.40;;;3.73;;
13439;SDS011;6792;57.698;11.946;2022-12-11T12:59:06;7.73;;;4.03;;
13439;SDS011;6792;57.698;11.946;2022-12-11T13:01:46;6.30;;;4.30;;
13439;SDS011;6792;57.698;11.946;2022-12-11T13:04:26;6.03;;;3.70;;
13439;SDS011;6792;57.698;11.946;2022-12-11T13:07:11;7.93;;;3.90;;
13439;SDS011;6792;57.698;11.946;2022-12-11T13:09:55;5.53;;;3.50;;
13439;SDS011;6792;57.698;11.946;2022-12-11T13:12:32;5.50;;;3.50;;
13439;SDS011;6792;57.698;11.946;2022-12-11T13:15:24;8.00;;;3.53;;
13439;SDS011;6792;57.698;11.946;2022-12-11T13:17:58;6.40;;;3.70;;
13439;SDS011;6792;57.698;11.946;2022-12-11T13:20:29;5.73;;;3.40;;
13439;SDS011;6792;57.698;11.946;2022-12-11T13:23:15;4.87;;;3.37;;
13439;SDS011;6792;57.698;11.946;2022-12-11T13:25:50;7.43;;;3.40;;
13439;SDS011;6792;57.698;11.946;2022-12-11T13:28:28;6.93;;;3.43;;
13439;SDS011;6792;57.698;11.946;2022-12-11T13:31:29;8.30;;;3.57;;
13439;SDS011;6792;57.698;11.946;2022-12-11T13:33:39;5.23;;;3.17;;
13439;SDS011;6792;57.698;11.946;2022-12-11T13:36:20;11.20;;;3.40;;
13439;SDS011;6792;57.698;11.946;2022-12-11T13:39:02;4.37;;;2.90;;
13439;SDS011;6792;57.698;11.946;2022-12-11T13:41:33;4.33;;;3.13;;
13439;SDS011;6792;57.698;11.946;2022-12-11T13:44:05;6.27;;;3.20;;
13439;SDS011;6792;57.698;11.946;2022-12-11T13:46:36;4.83;;;3.33;;
13439;SDS011;6792;57.698;11.946;2022-12-11T13:49:15;5.97;;;3.20;;
13439;SDS011;6792;57.698;11.946;2022-12-11T13:51:50;7.60;;;3.00;;
13439;SDS011;6792;57.698;11.946;2022-12-11T13:54:23;3.73;;;2.87;;
13439;SDS011;6792;57.698;11.946;2022-12-11T13:56:58;6.03;;;2.90;;
13439;SDS011;6792;57.698;11.946;2022-12-11T13:59:31;4.27;;;2.90;;
13439;SDS011;6792;57.698;11.946;2022-12-11T14:02:09;5.57;;;3.13;;
13439;SDS011;6792;57.698;11.946;2022-12-11T14:04:39;6.63;;;2.90;;
13439;SDS011;6792;57.698;11.946;2022-12-11T14:07:09;3.97;;;2.87;;
13439;SDS011;6792;57.698;11.946;2022-12-11T14:09:41;4.50;;;2.60;;
13439;SDS011;6792;57.698;11.946;2022-12-11T14:12:15;5.03;;;2.80;;
13439;SDS011;6792;57.698;11.946;2022-12-11T14:14:49;5.63;;;3.17;;
13439;SDS011;6792;57.698;11.946;2022-12-11T14:17:23;5.73;;;3.57;;
13439;SDS011;6792;57.698;11.946;2022-12-11T14:19:58;5.77;;;3.17;;
13439;SDS011;6792;57.698;11.946;2022-12-11T14:22:33;4.80;;;3.00;;
13439;SDS011;6792;57.698;11.946;2022-12-11T14:25:15;5.00;;;2.43;;
13439;SDS011;6792;57.698;11.946;2022-12-11T14:27:48;5.47;;;3.47;;
13439;SDS011;6792;57.698;11.946;2022-12-11T14:30:21;3.57;;;2.53;;
13439;SDS011;6792;57.698;11.946;2022-12-11T14:32:53;3.30;;;3.00;;
13439;SDS011;6792;57.698;11.946;2022-12-11T14:35:26;5.17;;;2.87;;
13439;SDS011;6792;57.698;11.946;2022-12-11T14:37:59;4.87;;;2.80;;
13439;SDS011;6792;57.698;11.946;2022-12-11T14:40:32;4.77;;;3.03;;
13439;SDS011;6792;57.698;11.946;2022-12-11T14:43:05;5.47;;;2.53;;
13439;SDS011;6792;57.698;11.946;2022-12-11T14:45:39;5.03;;;2.93;;
13439;SDS011;6792;57.698;11.946;2022-12-11T14:48:12;5.17;;;3.73;;
13439;SDS011;6792;57.698;11.946;2022-12-11T14:50:43;4.57;;;2.93;;
13439;SDS011;6792;57.698;11.946;2022-12-11T14:53:16;5.83;;;3.03;;
13439;SDS011;6792;57.698;11.946;2022-12-11T14:55:48;3.67;;;2.77;;
13439;SDS011;6792;57.698;11.946;2022-12-11T14:58:18;4.97;;;2.80;;
13439;SDS011;6792;57.698;11.946;2022-12-11T15:00:58;4.87;;;3.13;;
13439;SDS011;6792;57.698;11.946;2022-12-11T15:03:30;4.03;;;2.87;;
13439;SDS011;6792;57.698;11.946;2022-12-11T15:06:02;4.93;;;2.73;;
13439;SDS011;6792;57.698;11.946;2022-12-11T15:08:47;5.00;;;3.33;;
13439;SDS011;6792;57.698;11.946;2022-12-11T15:11:16;4.57;;;2.83;;
13439;SDS011;6792;57.698;11.946;2022-12-11T15:13:48;4.23;;;2.57;;
13439;SDS011;6792;57.698;11.946;2022-12-11T15:16:23;3.80;;;2.57;;
13439;SDS011;6792;57.698;11.946;2022-12-11T15:18:55;4.57;;;3.00;;
13439;SDS011;6792;57.698;11.946;2022-12-11T15:21:28;4.43;;;2.93;;